Capitol Logistics 1851

Operating for CJT



KCVG
Cincinnati/Northern Kentucky International Airport
Covington, Kentucky
CYMX
Montreal International (Mirabel) Airport
Montreal,

Activity Log

Date Flight Route Aircraft Duration
02/28/2022 CPX1851 BNGLE4 RIKLE KLYNE Q29 GONZZ ART CURDS DAVDA EPMOK Q955 MITIG B752 1h 48m

Route Details

Aircraft Information
Group: North America Fleet
Types: B738,B752,B762,B763
Route Data
Demand: M
Distance: 617nm
Duration: 1h 33m
Recm'd Route: BNGLE4 RIKLE KLYNE Q29 GONZZ ART CURDS DAVDA EPMOK Q955 MITIG
Origin Wx: KCVG 272152Z 26009KT 10SM FEW014 SCT025 BKN100 BKN200 18/16 A2978 RMK AO2 RAE25 TSE06 SLP078 TS MOV E CB MOV E TCU DSNT E P0001 T01780156
Dest. Wx: CYMX 272200Z 22006KT 25SM SCT012 BKN110 20/18 A2966 RMK CU3AC4 SLP046 DENSITY ALT 1300FT
Notes:

Financial History
Total Freight: 38,108lbs
Average Load: 38,108lbs/flt
Fuel Used: 11,068lbs
Avg. Fuel Used: 11,068lbs/flt
Fuel Expense: $3,984
Avg. Fuel Expense: $3,984
Avg. Fuel Cost: $0.36/lbs
Total Gross Income: $94,508
Pilot Pay: $239
Total Expenses: $11,615
Total Revenue: $78,554
Average Revenue: $94,507.84